sensor_id;sensor_type;location;lat;lon;timestamp;P1;durP1;ratioP1;P2;durP2;ratioP2
58756;SDS011;44527;47.460;19.016;2022-09-27T00:01:00;16.20;;;8.48;;
58756;SDS011;44527;47.460;19.016;2022-09-27T00:04:03;14.87;;;8.60;;
58756;SDS011;44527;47.460;19.016;2022-09-27T00:07:05;13.98;;;7.80;;
58756;SDS011;44527;47.460;19.016;2022-09-27T00:10:08;14.70;;;7.45;;
58756;SDS011;44527;47.460;19.016;2022-09-27T00:13:11;16.87;;;7.90;;
58756;SDS011;44527;47.460;19.016;2022-09-27T00:16:13;23.60;;;7.87;;
58756;SDS011;44527;47.460;19.016;2022-09-27T00:19:17;12.73;;;7.30;;
58756;SDS011;44527;47.460;19.016;2022-09-27T00:22:21;18.85;;;8.50;;
58756;SDS011;44527;47.460;19.016;2022-09-27T00:25:24;14.00;;;8.50;;
58756;SDS011;44527;47.460;19.016;2022-09-27T00:28:27;16.08;;;8.60;;
58756;SDS011;44527;47.460;19.016;2022-09-27T00:31:30;14.15;;;8.18;;
58756;SDS011;44527;47.460;19.016;2022-09-27T00:34:32;18.77;;;8.30;;
58756;SDS011;44527;47.460;19.016;2022-09-27T00:37:34;9.70;;;7.10;;
58756;SDS011;44527;47.460;19.016;2022-09-27T00:40:37;13.15;;;7.20;;
58756;SDS011;44527;47.460;19.016;2022-09-27T00:43:44;12.88;;;7.35;;
58756;SDS011;44527;47.460;19.016;2022-09-27T00:47:08;13.52;;;7.95;;
58756;SDS011;44527;47.460;19.016;2022-09-27T00:50:35;15.70;;;8.15;;
58756;SDS011;44527;47.460;19.016;2022-09-27T00:53:44;14.48;;;8.38;;
58756;SDS011;44527;47.460;19.016;2022-09-27T00:56:52;12.73;;;7.95;;
58756;SDS011;44527;47.460;19.016;2022-09-27T00:59:59;12.98;;;8.30;;
58756;SDS011;44527;47.460;19.016;2022-09-27T01:03:05;18.90;;;8.80;;
58756;SDS011;44527;47.460;19.016;2022-09-27T01:06:10;16.77;;;7.75;;
58756;SDS011;44527;47.460;19.016;2022-09-27T01:09:17;22.75;;;8.80;;
58756;SDS011;44527;47.460;19.016;2022-09-27T01:12:41;18.35;;;8.98;;
58756;SDS011;44527;47.460;19.016;2022-09-27T01:16:04;20.48;;;8.80;;
58756;SDS011;44527;47.460;19.016;2022-09-27T01:32:42;13.50;;;7.35;;
58756;SDS011;44527;47.460;19.016;2022-09-27T01:35:51;13.38;;;7.78;;
58756;SDS011;44527;47.460;19.016;2022-09-27T01:42:12;14.52;;;7.65;;
58756;SDS011;44527;47.460;19.016;2022-09-27T01:45:29;14.43;;;7.85;;
58756;SDS011;44527;47.460;19.016;2022-09-27T01:48:41;15.63;;;7.60;;
58756;SDS011;44527;47.460;19.016;2022-09-27T01:51:56;18.25;;;8.80;;
58756;SDS011;44527;47.460;19.016;2022-09-27T01:55:02;12.35;;;7.90;;
58756;SDS011;44527;47.460;19.016;2022-09-27T01:58:13;15.18;;;8.82;;
58756;SDS011;44527;47.460;19.016;2022-09-27T02:01:21;17.27;;;8.25;;
58756;SDS011;44527;47.460;19.016;2022-09-27T02:04:29;14.35;;;8.13;;
58756;SDS011;44527;47.460;19.016;2022-09-27T02:07:38;15.02;;;8.38;;
58756;SDS011;44527;47.460;19.016;2022-09-27T02:10:46;15.50;;;8.95;;
58756;SDS011;44527;47.460;19.016;2022-09-27T02:13:53;15.20;;;8.80;;
58756;SDS011;44527;47.460;19.016;2022-09-27T02:17:15;17.92;;;9.10;;
58756;SDS011;44527;47.460;19.016;2022-09-27T02:20:29;15.02;;;8.38;;
58756;SDS011;44527;47.460;19.016;2022-09-27T02:23:40;15.32;;;7.72;;
58756;SDS011;44527;47.460;19.016;2022-09-27T02:26:48;12.13;;;8.35;;
58756;SDS011;44527;47.460;19.016;2022-09-27T02:30:06;14.65;;;8.98;;
58756;SDS011;44527;47.460;19.016;2022-09-27T02:33:11;17.50;;;8.82;;
58756;SDS011;44527;47.460;19.016;2022-09-27T02:36:14;24.60;;;9.90;;
58756;SDS011;44527;47.460;19.016;2022-09-27T02:39:16;20.88;;;9.18;;
58756;SDS011;44527;47.460;19.016;2022-09-27T02:42:19;14.02;;;8.35;;
58756;SDS011;44527;47.460;19.016;2022-09-27T02:45:22;13.93;;;8.38;;
58756;SDS011;44527;47.460;19.016;2022-09-27T03:05:31;15.80;;;8.80;;
58756;SDS011;44527;47.460;19.016;2022-09-27T03:08:38;17.35;;;8.80;;
58756;SDS011;44527;47.460;19.016;2022-09-27T03:11:41;10.75;;;8.05;;
58756;SDS011;44527;47.460;19.016;2022-09-27T03:14:44;14.87;;;8.93;;
58756;SDS011;44527;47.460;19.016;2022-09-27T03:17:49;15.82;;;8.55;;
58756;SDS011;44527;47.460;19.016;2022-09-27T03:20:53;13.60;;;7.87;;
58756;SDS011;44527;47.460;19.016;2022-09-27T03:23:56;21.75;;;8.43;;
58756;SDS011;44527;47.460;19.016;2022-09-27T03:26:58;19.23;;;8.10;;
58756;SDS011;44527;47.460;19.016;2022-09-27T03:30:01;32.95;;;9.15;;
58756;SDS011;44527;47.460;19.016;2022-09-27T03:33:04;15.43;;;7.75;;
58756;SDS011;44527;47.460;19.016;2022-09-27T03:36:08;11.73;;;7.37;;
58756;SDS011;44527;47.460;19.016;2022-09-27T03:39:10;13.15;;;8.18;;
58756;SDS011;44527;47.460;19.016;2022-09-27T03:42:12;15.90;;;8.73;;
58756;SDS011;44527;47.460;19.016;2022-09-27T03:45:16;18.67;;;8.55;;
58756;SDS011;44527;47.460;19.016;2022-09-27T03:48:19;16.45;;;8.20;;
58756;SDS011;44527;47.460;19.016;2022-09-27T03:51:28;29.42;;;9.20;;
58756;SDS011;44527;47.460;19.016;2022-09-27T03:54:31;19.02;;;9.10;;
58756;SDS011;44527;47.460;19.016;2022-09-27T03:57:34;17.83;;;8.38;;
58756;SDS011;44527;47.460;19.016;2022-09-27T04:00:36;13.77;;;8.63;;
58756;SDS011;44527;47.460;19.016;2022-09-27T04:03:39;18.70;;;9.18;;
58756;SDS011;44527;47.460;19.016;2022-09-27T04:06:43;17.50;;;8.23;;
58756;SDS011;44527;47.460;19.016;2022-09-27T04:09:45;16.50;;;9.07;;
58756;SDS011;44527;47.460;19.016;2022-09-27T04:12:47;15.05;;;7.85;;
58756;SDS011;44527;47.460;19.016;2022-09-27T04:15:51;20.92;;;9.20;;
58756;SDS011;44527;47.460;19.016;2022-09-27T04:19:03;14.35;;;7.97;;
58756;SDS011;44527;47.460;19.016;2022-09-27T04:22:07;15.02;;;7.72;;
58756;SDS011;44527;47.460;19.016;2022-09-27T04:25:09;15.93;;;8.25;;
58756;SDS011;44527;47.460;19.016;2022-09-27T04:28:14;14.48;;;7.93;;
58756;SDS011;44527;47.460;19.016;2022-09-27T04:31:17;16.42;;;8.18;;
58756;SDS011;44527;47.460;19.016;2022-09-27T04:34:21;20.77;;;9.23;;
58756;SDS011;44527;47.460;19.016;2022-09-27T04:37:47;20.77;;;9.07;;
58756;SDS011;44527;47.460;19.016;2022-09-27T04:40:50;17.37;;;8.60;;
58756;SDS011;44527;47.460;19.016;2022-09-27T04:43:53;14.23;;;7.72;;
58756;SDS011;44527;47.460;19.016;2022-09-27T04:47:00;18.45;;;9.25;;
58756;SDS011;44527;47.460;19.016;2022-09-27T04:50:02;19.62;;;9.00;;
58756;SDS011;44527;47.460;19.016;2022-09-27T04:53:05;17.42;;;9.77;;
58756;SDS011;44527;47.460;19.016;2022-09-27T04:56:08;20.92;;;10.70;;
58756;SDS011;44527;47.460;19.016;2022-09-27T04:59:11;19.35;;;11.43;;
58756;SDS011;44527;47.460;19.016;2022-09-27T05:02:14;21.67;;;11.07;;
58756;SDS011;44527;47.460;19.016;2022-09-27T05:05:17;25.98;;;13.25;;
58756;SDS011;44527;47.460;19.016;2022-09-27T05:08:19;29.45;;;12.63;;
58756;SDS011;44527;47.460;19.016;2022-09-27T05:11:29;28.00;;;15.15;;
58756;SDS011;44527;47.460;19.016;2022-09-27T05:14:33;44.65;;;16.77;;
58756;SDS011;44527;47.460;19.016;2022-09-27T05:17:42;41.88;;;19.60;;
58756;SDS011;44527;47.460;19.016;2022-09-27T05:20:56;82.12;;;22.87;;
58756;SDS011;44527;47.460;19.016;2022-09-27T05:24:02;83.55;;;22.60;;
58756;SDS011;44527;47.460;19.016;2022-09-27T05:27:04;81.82;;;23.55;;
58756;SDS011;44527;47.460;19.016;2022-09-27T05:30:10;59.53;;;22.30;;
58756;SDS011;44527;47.460;19.016;2022-09-27T05:33:14;80.97;;;24.75;;
58756;SDS011;44527;47.460;19.016;2022-09-27T05:36:21;116.78;;;28.20;;
58756;SDS011;44527;47.460;19.016;2022-09-27T05:39:24;113.35;;;27.80;;
58756;SDS011;44527;47.460;19.016;2022-09-27T05:42:27;118.68;;;29.17;;
58756;SDS011;44527;47.460;19.016;2022-09-27T05:45:29;83.40;;;26.50;;
58756;SDS011;44527;47.460;19.016;2022-09-27T05:48:33;83.95;;;25.00;;
58756;SDS011;44527;47.460;19.016;2022-09-27T05:51:36;76.30;;;25.20;;
58756;SDS011;44527;47.460;19.016;2022-09-27T05:54:39;69.10;;;20.77;;
58756;SDS011;44527;47.460;19.016;2022-09-27T05:57:52;67.45;;;21.77;;
58756;SDS011;44527;47.460;19.016;2022-09-27T06:00:59;45.67;;;20.23;;
58756;SDS011;44527;47.460;19.016;2022-09-27T06:04:03;71.62;;;22.00;;
58756;SDS011;44527;47.460;19.016;2022-09-27T06:07:08;54.78;;;20.92;;
58756;SDS011;44527;47.460;19.016;2022-09-27T06:10:11;66.03;;;20.30;;
58756;SDS011;44527;47.460;19.016;2022-09-27T06:13:14;94.22;;;21.17;;
58756;SDS011;44527;47.460;19.016;2022-09-27T06:16:17;52.10;;;21.25;;
58756;SDS011;44527;47.460;19.016;2022-09-27T06:19:20;56.70;;;22.95;;
58756;SDS011;44527;47.460;19.016;2022-09-27T06:22:22;92.82;;;23.08;;
58756;SDS011;44527;47.460;19.016;2022-09-27T06:25:25;58.55;;;24.60;;
58756;SDS011;44527;47.460;19.016;2022-09-27T06:28:29;76.35;;;23.62;;
58756;SDS011;44527;47.460;19.016;2022-09-27T06:31:31;49.67;;;23.27;;
58756;SDS011;44527;47.460;19.016;2022-09-27T06:34:34;48.20;;;22.60;;
58756;SDS011;44527;47.460;19.016;2022-09-27T06:37:36;50.88;;;22.98;;
58756;SDS011;44527;47.460;19.016;2022-09-27T06:40:39;45.95;;;23.55;;
58756;SDS011;44527;47.460;19.016;2022-09-27T06:43:42;49.72;;;22.58;;
58756;SDS011;44527;47.460;19.016;2022-09-27T06:46:48;40.97;;;20.00;;
58756;SDS011;44527;47.460;19.016;2022-09-27T06:49:53;36.47;;;20.40;;
58756;SDS011;44527;47.460;19.016;2022-09-27T06:52:56;35.90;;;20.60;;
58756;SDS011;44527;47.460;19.016;2022-09-27T06:55:59;37.72;;;20.92;;
58756;SDS011;44527;47.460;19.016;2022-09-27T06:59:04;50.22;;;21.83;;
58756;SDS011;44527;47.460;19.016;2022-09-27T07:02:27;38.65;;;21.45;;
58756;SDS011;44527;47.460;19.016;2022-09-27T07:05:30;38.78;;;21.15;;
58756;SDS011;44527;47.460;19.016;2022-09-27T07:08:32;45.30;;;19.98;;
58756;SDS011;44527;47.460;19.016;2022-09-27T07:11:37;37.63;;;18.58;;
58756;SDS011;44527;47.460;19.016;2022-09-27T07:14:40;39.67;;;20.70;;
58756;SDS011;44527;47.460;19.016;2022-09-27T07:17:45;39.58;;;21.52;;
58756;SDS011;44527;47.460;19.016;2022-09-27T07:20:48;40.72;;;18.58;;
58756;SDS011;44527;47.460;19.016;2022-09-27T07:23:59;45.12;;;21.12;;
58756;SDS011;44527;47.460;19.016;2022-09-27T07:27:01;36.78;;;19.52;;
58756;SDS011;44527;47.460;19.016;2022-09-27T07:30:04;36.30;;;18.90;;
58756;SDS011;44527;47.460;19.016;2022-09-27T07:33:08;36.03;;;19.15;;
58756;SDS011;44527;47.460;19.016;2022-09-27T07:36:12;31.73;;;17.62;;
58756;SDS011;44527;47.460;19.016;2022-09-27T07:39:15;37.13;;;19.25;;
58756;SDS011;44527;47.460;19.016;2022-09-27T07:42:18;32.88;;;18.83;;
58756;SDS011;44527;47.460;19.016;2022-09-27T07:45:22;34.65;;;20.42;;
58756;SDS011;44527;47.460;19.016;2022-09-27T07:48:26;32.55;;;19.73;;
58756;SDS011;44527;47.460;19.016;2022-09-27T07:51:29;28.92;;;17.87;;
58756;SDS011;44527;47.460;19.016;2022-09-27T07:54:32;31.75;;;17.98;;
58756;SDS011;44527;47.460;19.016;2022-09-27T07:57:35;26.00;;;15.85;;
58756;SDS011;44527;47.460;19.016;2022-09-27T08:00:39;25.27;;;15.32;;
58756;SDS011;44527;47.460;19.016;2022-09-27T08:03:42;23.25;;;14.57;;
58756;SDS011;44527;47.460;19.016;2022-09-27T08:06:47;24.30;;;15.27;;
58756;SDS011;44527;47.460;19.016;2022-09-27T08:09:49;25.08;;;14.60;;
58756;SDS011;44527;47.460;19.016;2022-09-27T08:12:51;20.52;;;14.45;;
58756;SDS011;44527;47.460;19.016;2022-09-27T08:15:59;24.75;;;14.75;;
58756;SDS011;44527;47.460;19.016;2022-09-27T08:19:04;32.22;;;16.95;;
58756;SDS011;44527;47.460;19.016;2022-09-27T08:22:11;29.92;;;15.15;;
58756;SDS011;44527;47.460;19.016;2022-09-27T08:25:17;29.40;;;15.00;;
58756;SDS011;44527;47.460;19.016;2022-09-27T08:28:19;22.67;;;15.00;;
58756;SDS011;44527;47.460;19.016;2022-09-27T08:31:26;26.75;;;15.23;;
58756;SDS011;44527;47.460;19.016;2022-09-27T08:34:29;23.50;;;14.80;;
58756;SDS011;44527;47.460;19.016;2022-09-27T08:37:31;23.17;;;15.07;;
58756;SDS011;44527;47.460;19.016;2022-09-27T08:40:45;23.42;;;15.68;;
58756;SDS011;44527;47.460;19.016;2022-09-27T08:47:25;22.50;;;14.77;;
58756;SDS011;44527;47.460;19.016;2022-09-27T08:50:36;21.08;;;14.07;;
58756;SDS011;44527;47.460;19.016;2022-09-27T08:54:00;23.38;;;13.88;;
58756;SDS011;44527;47.460;19.016;2022-09-27T08:57:21;28.12;;;15.52;;
58756;SDS011;44527;47.460;19.016;2022-09-27T09:00:27;25.08;;;14.85;;
58756;SDS011;44527;47.460;19.016;2022-09-27T09:03:32;32.92;;;17.02;;
58756;SDS011;44527;47.460;19.016;2022-09-27T09:10:02;23.95;;;15.57;;
58756;SDS011;44527;47.460;19.016;2022-09-27T09:17:38;21.92;;;15.10;;
58756;SDS011;44527;47.460;19.016;2022-09-27T09:27:03;24.48;;;15.60;;
58756;SDS011;44527;47.460;19.016;2022-09-27T09:34:29;26.92;;;16.10;;
58756;SDS011;44527;47.460;19.016;2022-09-27T09:37:16;26.37;;;16.80;;
58756;SDS011;44527;47.460;19.016;2022-09-27T09:40:27;25.75;;;16.52;;
58756;SDS011;44527;47.460;19.016;2022-09-27T09:43:37;28.75;;;16.58;;
58756;SDS011;44527;47.460;19.016;2022-09-27T09:46:50;25.83;;;16.70;;
58756;SDS011;44527;47.460;19.016;2022-09-27T09:49:57;23.45;;;16.67;;
58756;SDS011;44527;47.460;19.016;2022-09-27T09:56:48;23.45;;;16.27;;
58756;SDS011;44527;47.460;19.016;2022-09-27T09:59:56;24.95;;;15.95;;
58756;SDS011;44527;47.460;19.016;2022-09-27T10:03:03;27.37;;;16.48;;
58756;SDS011;44527;47.460;19.016;2022-09-27T10:06:07;27.42;;;17.05;;
58756;SDS011;44527;47.460;19.016;2022-09-27T10:09:13;26.02;;;16.83;;
58756;SDS011;44527;47.460;19.016;2022-09-27T10:12:18;26.40;;;17.02;;
58756;SDS011;44527;47.460;19.016;2022-09-27T10:15:22;27.20;;;15.80;;
58756;SDS011;44527;47.460;19.016;2022-09-27T10:18:27;22.95;;;15.85;;
58756;SDS011;44527;47.460;19.016;2022-09-27T10:21:31;27.30;;;16.25;;
58756;SDS011;44527;47.460;19.016;2022-09-27T10:24:51;22.05;;;15.23;;
58756;SDS011;44527;47.460;19.016;2022-09-27T10:28:03;20.92;;;14.40;;
58756;SDS011;44527;47.460;19.016;2022-09-27T10:31:10;26.02;;;15.45;;
58756;SDS011;44527;47.460;19.016;2022-09-27T10:37:38;18.15;;;12.95;;
58756;SDS011;44527;47.460;19.016;2022-09-27T10:40:41;24.58;;;12.68;;
58756;SDS011;44527;47.460;19.016;2022-09-27T10:43:45;17.58;;;11.77;;
58756;SDS011;44527;47.460;19.016;2022-09-27T10:46:58;21.55;;;12.02;;
58756;SDS011;44527;47.460;19.016;2022-09-27T10:53:36;18.45;;;11.35;;
58756;SDS011;44527;47.460;19.016;2022-09-27T10:56:41;17.35;;;11.52;;
58756;SDS011;44527;47.460;19.016;2022-09-27T10:59:44;16.37;;;12.65;;
58756;SDS011;44527;47.460;19.016;2022-09-27T11:02:53;17.83;;;12.05;;
58756;SDS011;44527;47.460;19.016;2022-09-27T11:06:17;18.95;;;11.55;;
58756;SDS011;44527;47.460;19.016;2022-09-27T11:09:27;17.92;;;11.35;;
58756;SDS011;44527;47.460;19.016;2022-09-27T11:12:32;15.40;;;10.98;;
58756;SDS011;44527;47.460;19.016;2022-09-27T11:15:48;15.00;;;10.88;;
58756;SDS011;44527;47.460;19.016;2022-09-27T11:19:12;14.50;;;10.45;;
58756;SDS011;44527;47.460;19.016;2022-09-27T11:22:45;12.90;;;9.82;;
58756;SDS011;44527;47.460;19.016;2022-09-27T11:36:24;23.58;;;13.25;;
58756;SDS011;44527;47.460;19.016;2022-09-27T11:50:35;19.95;;;12.02;;
58756;SDS011;44527;47.460;19.016;2022-09-27T11:53:54;18.02;;;11.93;;
58756;SDS011;44527;47.460;19.016;2022-09-27T12:06:52;23.60;;;12.45;;
58756;SDS011;44527;47.460;19.016;2022-09-27T12:10:07;28.23;;;12.57;;
58756;SDS011;44527;47.460;19.016;2022-09-27T12:13:26;23.05;;;11.73;;
58756;SDS011;44527;47.460;19.016;2022-09-27T12:16:36;17.35;;;10.50;;
58756;SDS011;44527;47.460;19.016;2022-09-27T12:35:01;15.95;;;11.73;;
58756;SDS011;44527;47.460;19.016;2022-09-27T12:38:12;17.60;;;11.27;;
58756;SDS011;44527;47.460;19.016;2022-09-27T12:41:18;26.02;;;12.23;;
58756;SDS011;44527;47.460;19.016;2022-09-27T12:44:25;19.67;;;11.25;;
58756;SDS011;44527;47.460;19.016;2022-09-27T12:47:42;24.65;;;11.50;;
58756;SDS011;44527;47.460;19.016;2022-09-27T12:50:53;16.02;;;10.13;;
58756;SDS011;44527;47.460;19.016;2022-09-27T13:07:44;13.68;;;9.05;;
58756;SDS011;44527;47.460;19.016;2022-09-27T13:14:19;12.48;;;8.27;;
58756;SDS011;44527;47.460;19.016;2022-09-27T13:17:46;15.10;;;9.10;;
58756;SDS011;44527;47.460;19.016;2022-09-27T13:20:51;13.80;;;8.98;;
58756;SDS011;44527;47.460;19.016;2022-09-27T13:23:54;12.95;;;7.87;;
58756;SDS011;44527;47.460;19.016;2022-09-27T13:26:59;12.82;;;8.27;;
58756;SDS011;44527;47.460;19.016;2022-09-27T13:34:00;9.85;;;6.37;;
58756;SDS011;44527;47.460;19.016;2022-09-27T13:36:45;9.43;;;5.90;;
58756;SDS011;44527;47.460;19.016;2022-09-27T13:39:48;8.75;;;5.53;;
58756;SDS011;44527;47.460;19.016;2022-09-27T13:46:13;9.43;;;5.55;;
58756;SDS011;44527;47.460;19.016;2022-09-27T13:52:54;8.35;;;5.93;;
58756;SDS011;44527;47.460;19.016;2022-09-27T13:55:59;10.10;;;5.68;;
58756;SDS011;44527;47.460;19.016;2022-09-27T14:06:14;10.35;;;6.78;;
58756;SDS011;44527;47.460;19.016;2022-09-27T14:09:20;10.48;;;5.68;;
58756;SDS011;44527;47.460;19.016;2022-09-27T14:12:31;28.75;;;4.20;;
58756;SDS011;44527;47.460;19.016;2022-09-27T14:15:37;10.52;;;2.60;;
58756;SDS011;44527;47.460;19.016;2022-09-27T14:18:50;15.48;;;2.58;;
58756;SDS011;44527;47.460;19.016;2022-09-27T14:25:01;8.57;;;1.75;;
58756;SDS011;44527;47.460;19.016;2022-09-27T14:28:17;9.40;;;1.60;;
58756;SDS011;44527;47.460;19.016;2022-09-27T14:31:23;3.53;;;0.98;;
58756;SDS011;44527;47.460;19.016;2022-09-27T14:34:26;4.50;;;0.90;;
58756;SDS011;44527;47.460;19.016;2022-09-27T14:37:29;2.17;;;0.85;;
58756;SDS011;44527;47.460;19.016;2022-09-27T14:40:44;6.40;;;1.08;;
58756;SDS011;44527;47.460;19.016;2022-09-27T14:43:59;3.12;;;0.90;;
58756;SDS011;44527;47.460;19.016;2022-09-27T14:50:24;4.55;;;0.62;;
58756;SDS011;44527;47.460;19.016;2022-09-27T14:53:31;1.45;;;0.45;;
58756;SDS011;44527;47.460;19.016;2022-09-27T14:56:36;1.27;;;0.77;;
58756;SDS011;44527;47.460;19.016;2022-09-27T14:59:39;2.97;;;0.60;;
58756;SDS011;44527;47.460;19.016;2022-09-27T15:02:45;3.80;;;0.80;;
58756;SDS011;44527;47.460;19.016;2022-09-27T15:05:51;1.05;;;0.62;;
58756;SDS011;44527;47.460;19.016;2022-09-27T15:08:55;1.33;;;0.65;;
58756;SDS011;44527;47.460;19.016;2022-09-27T15:11:59;1.05;;;0.57;;
58756;SDS011;44527;47.460;19.016;2022-09-27T15:15:03;0.50;;;0.35;;
58756;SDS011;44527;47.460;19.016;2022-09-27T15:21:35;3.10;;;0.65;;
58756;SDS011;44527;47.460;19.016;2022-09-27T15:24:39;1.83;;;0.60;;
58756;SDS011;44527;47.460;19.016;2022-09-27T15:27:46;2.10;;;0.40;;
58756;SDS011;44527;47.460;19.016;2022-09-27T15:30:56;2.03;;;0.43;;
58756;SDS011;44527;47.460;19.016;2022-09-27T15:34:01;0.55;;;0.20;;
58756;SDS011;44527;47.460;19.016;2022-09-27T15:37:09;0.60;;;0.30;;
58756;SDS011;44527;47.460;19.016;2022-09-27T15:43:52;2.20;;;0.55;;
58756;SDS011;44527;47.460;19.016;2022-09-27T15:46:54;2.37;;;0.50;;
58756;SDS011;44527;47.460;19.016;2022-09-27T15:49:57;3.00;;;0.40;;
58756;SDS011;44527;47.460;19.016;2022-09-27T15:53:00;1.15;;;0.50;;
58756;SDS011;44527;47.460;19.016;2022-09-27T15:56:04;1.05;;;0.50;;
58756;SDS011;44527;47.460;19.016;2022-09-27T15:59:13;0.95;;;0.60;;
58756;SDS011;44527;47.460;19.016;2022-09-27T16:02:20;2.92;;;0.90;;
58756;SDS011;44527;47.460;19.016;2022-09-27T16:05:23;1.65;;;0.60;;
58756;SDS011;44527;47.460;19.016;2022-09-27T16:08:25;1.60;;;0.70;;
58756;SDS011;44527;47.460;19.016;2022-09-27T16:11:28;2.12;;;0.80;;
58756;SDS011;44527;47.460;19.016;2022-09-27T16:14:30;1.98;;;0.60;;
58756;SDS011;44527;47.460;19.016;2022-09-27T16:17:33;1.70;;;0.98;;
58756;SDS011;44527;47.460;19.016;2022-09-27T16:20:39;0.98;;;0.62;;
58756;SDS011;44527;47.460;19.016;2022-09-27T16:23:42;3.58;;;1.00;;
58756;SDS011;44527;47.460;19.016;2022-09-27T16:26:44;2.53;;;0.90;;
58756;SDS011;44527;47.460;19.016;2022-09-27T16:29:47;2.08;;;0.70;;
58756;SDS011;44527;47.460;19.016;2022-09-27T16:32:49;1.73;;;0.60;;
58756;SDS011;44527;47.460;19.016;2022-09-27T16:35:52;1.50;;;0.88;;
58756;SDS011;44527;47.460;19.016;2022-09-27T16:38:55;1.25;;;0.37;;
58756;SDS011;44527;47.460;19.016;2022-09-27T16:41:57;0.88;;;0.50;;
58756;SDS011;44527;47.460;19.016;2022-09-27T16:45:00;2.28;;;0.70;;
58756;SDS011;44527;47.460;19.016;2022-09-27T16:48:12;0.70;;;0.43;;
58756;SDS011;44527;47.460;19.016;2022-09-27T16:51:15;1.58;;;0.70;;
58756;SDS011;44527;47.460;19.016;2022-09-27T16:54:39;1.98;;;0.65;;
58756;SDS011;44527;47.460;19.016;2022-09-27T16:57:41;0.70;;;0.50;;
58756;SDS011;44527;47.460;19.016;2022-09-27T17:00:43;2.10;;;0.93;;
58756;SDS011;44527;47.460;19.016;2022-09-27T17:03:49;1.75;;;0.80;;
58756;SDS011;44527;47.460;19.016;2022-09-27T17:06:58;2.65;;;1.00;;
58756;SDS011;44527;47.460;19.016;2022-09-27T17:10:00;7.85;;;1.35;;
58756;SDS011;44527;47.460;19.016;2022-09-27T17:13:03;6.50;;;1.12;;
58756;SDS011;44527;47.460;19.016;2022-09-27T17:16:05;3.60;;;1.40;;
58756;SDS011;44527;47.460;19.016;2022-09-27T17:19:08;4.28;;;1.52;;
58756;SDS011;44527;47.460;19.016;2022-09-27T17:22:11;4.80;;;1.20;;
58756;SDS011;44527;47.460;19.016;2022-09-27T17:25:13;2.50;;;1.40;;
58756;SDS011;44527;47.460;19.016;2022-09-27T17:28:15;3.62;;;1.55;;
58756;SDS011;44527;47.460;19.016;2022-09-27T17:31:18;3.35;;;1.75;;
58756;SDS011;44527;47.460;19.016;2022-09-27T17:34:20;3.22;;;1.50;;
58756;SDS011;44527;47.460;19.016;2022-09-27T17:37:24;4.10;;;1.52;;
58756;SDS011;44527;47.460;19.016;2022-09-27T17:40:26;4.90;;;2.10;;
58756;SDS011;44527;47.460;19.016;2022-09-27T17:43:29;6.62;;;1.70;;
58756;SDS011;44527;47.460;19.016;2022-09-27T17:46:38;4.40;;;1.80;;
58756;SDS011;44527;47.460;19.016;2022-09-27T17:49:41;2.10;;;1.67;;
58756;SDS011;44527;47.460;19.016;2022-09-27T17:53:02;2.90;;;1.67;;
58756;SDS011;44527;47.460;19.016;2022-09-27T17:56:04;2.45;;;1.50;;
58756;SDS011;44527;47.460;19.016;2022-09-27T17:59:08;3.12;;;1.80;;
58756;SDS011;44527;47.460;19.016;2022-09-27T18:02:11;3.65;;;1.50;;
58756;SDS011;44527;47.460;19.016;2022-09-27T18:05:14;2.60;;;1.40;;
58756;SDS011;44527;47.460;19.016;2022-09-27T18:08:17;5.00;;;1.37;;
58756;SDS011;44527;47.460;19.016;2022-09-27T18:11:20;4.85;;;1.40;;
58756;SDS011;44527;47.460;19.016;2022-09-27T18:14:28;6.03;;;1.80;;
58756;SDS011;44527;47.460;19.016;2022-09-27T18:17:30;2.95;;;1.30;;
58756;SDS011;44527;47.460;19.016;2022-09-27T18:20:33;3.65;;;1.37;;
58756;SDS011;44527;47.460;19.016;2022-09-27T18:23:36;3.92;;;1.77;;
58756;SDS011;44527;47.460;19.016;2022-09-27T18:26:39;3.35;;;1.62;;
58756;SDS011;44527;47.460;19.016;2022-09-27T18:29:41;4.15;;;2.15;;
58756;SDS011;44527;47.460;19.016;2022-09-27T18:32:44;5.65;;;2.53;;
58756;SDS011;44527;47.460;19.016;2022-09-27T18:35:46;5.75;;;2.33;;
58756;SDS011;44527;47.460;19.016;2022-09-27T18:39:31;5.70;;;2.17;;
58756;SDS011;44527;47.460;19.016;2022-09-27T18:42:16;3.80;;;2.15;;
58756;SDS011;44527;47.460;19.016;2022-09-27T18:45:19;5.57;;;2.30;;
58756;SDS011;44527;47.460;19.016;2022-09-27T18:48:21;3.83;;;2.28;;
58756;SDS011;44527;47.460;19.016;2022-09-27T18:51:24;3.62;;;1.90;;
58756;SDS011;44527;47.460;19.016;2022-09-27T18:54:28;6.80;;;3.15;;
58756;SDS011;44527;47.460;19.016;2022-09-27T18:57:30;6.30;;;2.45;;
58756;SDS011;44527;47.460;19.016;2022-09-27T19:00:36;9.13;;;2.90;;
58756;SDS011;44527;47.460;19.016;2022-09-27T19:03:39;4.18;;;2.30;;
58756;SDS011;44527;47.460;19.016;2022-09-27T19:06:42;5.78;;;2.45;;
58756;SDS011;44527;47.460;19.016;2022-09-27T19:09:44;3.92;;;2.22;;
58756;SDS011;44527;47.460;19.016;2022-09-27T19:12:46;2.62;;;1.77;;
58756;SDS011;44527;47.460;19.016;2022-09-27T19:15:55;3.35;;;1.73;;
58756;SDS011;44527;47.460;19.016;2022-09-27T19:18:59;4.70;;;1.90;;
58756;SDS011;44527;47.460;19.016;2022-09-27T19:22:01;4.72;;;2.60;;
58756;SDS011;44527;47.460;19.016;2022-09-27T19:25:04;3.00;;;1.98;;
58756;SDS011;44527;47.460;19.016;2022-09-27T19:28:07;3.58;;;1.67;;
58756;SDS011;44527;47.460;19.016;2022-09-27T19:31:11;3.00;;;2.03;;
58756;SDS011;44527;47.460;19.016;2022-09-27T19:34:15;4.47;;;2.00;;
58756;SDS011;44527;47.460;19.016;2022-09-27T19:37:17;4.12;;;2.15;;
58756;SDS011;44527;47.460;19.016;2022-09-27T19:40:20;5.28;;;1.92;;
58756;SDS011;44527;47.460;19.016;2022-09-27T19:43:23;3.55;;;2.15;;
58756;SDS011;44527;47.460;19.016;2022-09-27T19:46:25;3.40;;;1.95;;
58756;SDS011;44527;47.460;19.016;2022-09-27T19:49:28;2.80;;;1.87;;
58756;SDS011;44527;47.460;19.016;2022-09-27T19:52:30;3.75;;;2.33;;
58756;SDS011;44527;47.460;19.016;2022-09-27T19:55:34;3.85;;;2.35;;
58756;SDS011;44527;47.460;19.016;2022-09-27T19:58:37;4.40;;;2.17;;
58756;SDS011;44527;47.460;19.016;2022-09-27T20:01:40;5.53;;;2.53;;
58756;SDS011;44527;47.460;19.016;2022-09-27T20:04:43;4.30;;;2.42;;
58756;SDS011;44527;47.460;19.016;2022-09-27T20:07:45;3.25;;;2.15;;
58756;SDS011;44527;47.460;19.016;2022-09-27T20:10:52;5.07;;;2.47;;
58756;SDS011;44527;47.460;19.016;2022-09-27T20:13:57;3.25;;;2.03;;
58756;SDS011;44527;47.460;19.016;2022-09-27T20:17:03;3.78;;;2.15;;
58756;SDS011;44527;47.460;19.016;2022-09-27T20:20:05;3.58;;;2.00;;
58756;SDS011;44527;47.460;19.016;2022-09-27T20:23:10;4.47;;;2.75;;
58756;SDS011;44527;47.460;19.016;2022-09-27T20:26:13;3.47;;;2.10;;
58756;SDS011;44527;47.460;19.016;2022-09-27T20:29:16;3.40;;;2.33;;
58756;SDS011;44527;47.460;19.016;2022-09-27T20:32:19;6.82;;;2.25;;
58756;SDS011;44527;47.460;19.016;2022-09-27T20:35:29;6.55;;;2.62;;
58756;SDS011;44527;47.460;19.016;2022-09-27T20:38:31;3.12;;;2.17;;
58756;SDS011;44527;47.460;19.016;2022-09-27T20:41:35;4.20;;;2.30;;
58756;SDS011;44527;47.460;19.016;2022-09-27T20:44:39;4.20;;;2.10;;
58756;SDS011;44527;47.460;19.016;2022-09-27T20:47:42;3.78;;;2.22;;